Time;durP1;ratioP1;P1;durP2;ratioP2;P2;SDS_P1;SDS_P2;PMS_P1;PMS_P2;Temp;Humidity;BMP_temperature;BMP_pressure;BME280_temperature;BME280_humidity;BME280_pressure;Samples;Min_cycle;Max_cycle;Signal;HPM_P1;HPM_P2
2022/03/25 00:00:50;;;;;;;11.05;7.45;;;;;;;2.73;37.29199;95991.17;;;;
2022/03/25 00:01:51;;;;;;;11.05;7.45;;;;;;;2.73;37.29199;95991.17;;;;
2022/03/25 00:02:52;;;;;;;11.05;7.45;;;;;;;2.73;37.29199;95991.17;;;;
2022/03/25 00:03:53;;;;;;;11.05;7.45;;;;;;;2.73;37.29199;95991.17;;;;
2022/03/25 00:04:53;;;;;;;11.05;7.45;;;;;;;2.73;37.29199;95991.17;;;;
2022/03/25 00:05:54;;;;;;;11.05;7.45;;;;;;;2.73;37.29199;95991.17;;;;
2022/03/25 00:06:54;;;;;;;11.05;7.45;;;;;;;2.73;37.29199;95991.17;;;;
2022/03/25 00:07:55;;;;;;;11.05;7.45;;;;;;;2.73;37.29199;95991.17;;;;
2022/03/25 00:08:55;;;;;;;11.05;7.45;;;;;;;2.73;37.29199;95991.17;;;;
2022/03/25 00:09:55;;;;;;;11.05;7.45;;;;;;;2.73;37.29199;95991.17;;;;
2022/03/25 00:10:56;;;;;;;11.05;7.45;;;;;;;2.73;37.29199;95991.17;;;;
2022/03/25 00:11:57;;;;;;;9.950001;6.149999;;;;;;;2.53;37.54102;95979.57;;;;
2022/03/25 00:12:57;;;;;;;9.950001;6.149999;;;;;;;2.53;37.54102;95979.57;;;;
2022/03/25 00:13:58;;;;;;;9.950001;6.149999;;;;;;;2.53;37.54102;95979.57;;;;
2022/03/25 00:14:58;;;;;;;9.950001;6.149999;;;;;;;2.53;37.54102;95979.57;;;;
2022/03/25 00:15:59;;;;;;;9.950001;6.149999;;;;;;;2.53;37.54102;95979.57;;;;
2022/03/25 00:16:59;;;;;;;9.950001;6.149999;;;;;;;2.53;37.54102;95979.57;;;;
2022/03/25 00:18:00;;;;;;;9.950001;6.149999;;;;;;;2.53;37.54102;95979.57;;;;
2022/03/25 00:19:00;;;;;;;9.950001;6.149999;;;;;;;2.53;37.54102;95979.57;;;;
2022/03/25 00:20:01;;;;;;;9.950001;6.149999;;;;;;;2.53;37.54102;95979.57;;;;
2022/03/25 00:21:01;;;;;;;9.950001;6.149999;;;;;;;2.53;37.54102;95979.57;;;;
2022/03/25 00:22:02;;;;;;;9.950001;6.149999;;;;;;;2.53;37.54102;95979.57;;;;
2022/03/25 00:23:03;;;;;;;8.799999;6.3;;;;;;;2.42;37.76465;95978.59;;;;
2022/03/25 00:24:04;;;;;;;8.799999;6.3;;;;;;;2.42;37.76465;95978.59;;;;
2022/03/25 00:25:05;;;;;;;8.799999;6.3;;;;;;;2.42;37.76465;95978.59;;;;
2022/03/25 00:26:07;;;;;;;8.799999;6.3;;;;;;;2.42;37.76465;95978.59;;;;
2022/03/25 00:27:08;;;;;;;8.799999;6.3;;;;;;;2.42;37.76465;95978.59;;;;
2022/03/25 00:28:10;;;;;;;8.799999;6.3;;;;;;;2.42;37.76465;95978.59;;;;
2022/03/25 00:29:11;;;;;;;8.799999;6.3;;;;;;;2.42;37.76465;95978.59;;;;
2022/03/25 00:30:12;;;;;;;8.799999;6.3;;;;;;;2.42;37.76465;95978.59;;;;
2022/03/25 00:31:13;;;;;;;8.799999;6.3;;;;;;;2.42;37.76465;95978.59;;;;
2022/03/25 00:32:15;;;;;;;8.799999;6.3;;;;;;;2.42;37.76465;95978.59;;;;
2022/03/25 00:33:16;;;;;;;8.6;5.749999;;;;;;;2.23;38.01172;95972.37;;;;
2022/03/25 00:34:16;;;;;;;8.6;5.749999;;;;;;;2.23;38.01172;95972.37;;;;
2022/03/25 00:35:17;;;;;;;8.6;5.749999;;;;;;;2.23;38.01172;95972.37;;;;
2022/03/25 00:36:18;;;;;;;8.6;5.749999;;;;;;;2.23;38.01172;95972.37;;;;
2022/03/25 00:37:19;;;;;;;8.6;5.749999;;;;;;;2.23;38.01172;95972.37;;;;
2022/03/25 00:38:21;;;;;;;8.6;5.749999;;;;;;;2.23;38.01172;95972.37;;;;
2022/03/25 00:39:22;;;;;;;8.6;5.749999;;;;;;;2.23;38.01172;95972.37;;;;
2022/03/25 00:40:22;;;;;;;8.6;5.749999;;;;;;;2.23;38.01172;95972.37;;;;
2022/03/25 00:41:23;;;;;;;8.6;5.749999;;;;;;;2.23;38.01172;95972.37;;;;
2022/03/25 00:42:25;;;;;;;8.6;5.749999;;;;;;;2.23;38.01172;95972.37;;;;
2022/03/25 00:43:27;;;;;;;8.6;5.749999;;;;;;;2.23;38.01172;95972.37;;;;
2022/03/25 00:44:27;;;;;;;10.8;6.299999;;;;;;;2.02;38.29004;95968.45;;;;
2022/03/25 00:45:29;;;;;;;10.8;6.299999;;;;;;;2.02;38.29004;95968.45;;;;
2022/03/25 00:46:29;;;;;;;10.8;6.299999;;;;;;;2.02;38.29004;95968.45;;;;
2022/03/25 00:47:30;;;;;;;10.8;6.299999;;;;;;;2.02;38.29004;95968.45;;;;
2022/03/25 00:48:32;;;;;;;10.8;6.299999;;;;;;;2.02;38.29004;95968.45;;;;
2022/03/25 00:49:32;;;;;;;10.8;6.299999;;;;;;;2.02;38.29004;95968.45;;;;
2022/03/25 00:50:33;;;;;;;10.8;6.299999;;;;;;;2.02;38.29004;95968.45;;;;
2022/03/25 00:51:34;;;;;;;10.8;6.299999;;;;;;;2.02;38.29004;95968.45;;;;
2022/03/25 00:52:34;;;;;;;10.8;6.299999;;;;;;;2.02;38.29004;95968.45;;;;
2022/03/25 00:53:35;;;;;;;10.8;6.299999;;;;;;;2.02;38.29004;95968.45;;;;
2022/03/25 00:54:36;;;;;;;8.349999;6.15;;;;;;;1.84;38.52832;95962.39;;;;
2022/03/25 00:55:37;;;;;;;8.349999;6.15;;;;;;;1.84;38.52832;95962.39;;;;
2022/03/25 00:56:38;;;;;;;8.349999;6.15;;;;;;;1.84;38.52832;95962.39;;;;
2022/03/25 00:57:39;;;;;;;8.349999;6.15;;;;;;;1.84;38.52832;95962.39;;;;
2022/03/25 00:58:39;;;;;;;8.349999;6.15;;;;;;;1.84;38.52832;95962.39;;;;
2022/03/25 00:59:40;;;;;;;8.349999;6.15;;;;;;;1.84;38.52832;95962.39;;;;
2022/03/25 01:00:41;;;;;;;8.349999;6.15;;;;;;;1.84;38.52832;95962.39;;;;
2022/03/25 01:01:42;;;;;;;8.349999;6.15;;;;;;;1.84;38.52832;95962.39;;;;
2022/03/25 01:02:42;;;;;;;8.349999;6.15;;;;;;;1.84;38.52832;95962.39;;;;
2022/03/25 01:03:43;;;;;;;8.349999;6.15;;;;;;;1.84;38.52832;95962.39;;;;
2022/03/25 01:04:44;;;;;;;8.349999;6.15;;;;;;;1.84;38.52832;95962.39;;;;
2022/03/25 01:05:44;;;;;;;9.6;6.15;;;;;;;1.81;38.68457;95963.22;;;;
2022/03/25 01:06:45;;;;;;;9.6;6.15;;;;;;;1.81;38.68457;95963.22;;;;
2022/03/25 01:07:46;;;;;;;9.6;6.15;;;;;;;1.81;38.68457;95963.22;;;;
2022/03/25 01:08:47;;;;;;;9.6;6.15;;;;;;;1.81;38.68457;95963.22;;;;
2022/03/25 01:09:48;;;;;;;9.6;6.15;;;;;;;1.81;38.68457;95963.22;;;;
2022/03/25 01:10:48;;;;;;;9.6;6.15;;;;;;;1.81;38.68457;95963.22;;;;
2022/03/25 01:11:49;;;;;;;9.6;6.15;;;;;;;1.81;38.68457;95963.22;;;;
2022/03/25 01:12:50;;;;;;;9.6;6.15;;;;;;;1.81;38.68457;95963.22;;;;
2022/03/25 01:13:50;;;;;;;9.6;6.15;;;;;;;1.81;38.68457;95963.22;;;;
2022/03/25 01:14:51;;;;;;;9.6;6.15;;;;;;;1.81;38.68457;95963.22;;;;
2022/03/25 01:15:51;;;;;;;10.15;6.2;;;;;;;1.68;38.88477;95957.12;;;;
2022/03/25 01:16:52;;;;;;;10.15;6.2;;;;;;;1.68;38.88477;95957.12;;;;
2022/03/25 01:17:52;;;;;;;10.15;6.2;;;;;;;1.68;38.88477;95957.12;;;;
2022/03/25 01:18:53;;;;;;;10.15;6.2;;;;;;;1.68;38.88477;95957.12;;;;
2022/03/25 01:19:53;;;;;;;10.15;6.2;;;;;;;1.68;38.88477;95957.12;;;;
2022/03/25 01:20:54;;;;;;;10.15;6.2;;;;;;;1.68;38.88477;95957.12;;;;
2022/03/25 01:21:55;;;;;;;10.15;6.2;;;;;;;1.68;38.88477;95957.12;;;;
2022/03/25 01:22:56;;;;;;;10.15;6.2;;;;;;;1.68;38.88477;95957.12;;;;
2022/03/25 01:23:57;;;;;;;10.15;6.2;;;;;;;1.68;38.88477;95957.12;;;;
2022/03/25 01:24:58;;;;;;;10.15;6.2;;;;;;;1.68;38.88477;95957.12;;;;
2022/03/25 01:25:59;;;;;;;10.15;6.2;;;;;;;1.68;38.88477;95957.12;;;;
2022/03/25 01:26:59;;;;;;;11.4;6.749999;;;;;;;1.54;39.18945;95953.3;;;;
2022/03/25 01:28:00;;;;;;;11.4;6.749999;;;;;;;1.54;39.18945;95953.3;;;;
2022/03/25 01:29:01;;;;;;;11.4;6.749999;;;;;;;1.54;39.18945;95953.3;;;;
2022/03/25 01:30:01;;;;;;;11.4;6.749999;;;;;;;1.54;39.18945;95953.3;;;;
2022/03/25 01:31:03;;;;;;;11.4;6.749999;;;;;;;1.54;39.18945;95953.3;;;;
2022/03/25 01:32:06;;;;;;;11.4;6.749999;;;;;;;1.54;39.18945;95953.3;;;;
2022/03/25 01:33:07;;;;;;;11.4;6.749999;;;;;;;1.54;39.18945;95953.3;;;;
2022/03/25 01:34:08;;;;;;;11.4;6.749999;;;;;;;1.54;39.18945;95953.3;;;;
2022/03/25 01:35:09;;;;;;;11.4;6.749999;;;;;;;1.54;39.18945;95953.3;;;;
2022/03/25 01:36:09;;;;;;;11.4;6.749999;;;;;;;1.54;39.18945;95953.3;;;;
2022/03/25 01:37:11;;;;;;;9.199999;6.9;;;;;;;1.39;39.41895;95947.37;;;;
2022/03/25 01:38:13;;;;;;;9.199999;6.9;;;;;;;1.39;39.41895;95947.37;;;;
2022/03/25 01:39:13;;;;;;;9.199999;6.9;;;;;;;1.39;39.41895;95947.37;;;;
2022/03/25 01:40:14;;;;;;;9.199999;6.9;;;;;;;1.39;39.41895;95947.37;;;;
2022/03/25 01:41:14;;;;;;;9.199999;6.9;;;;;;;1.39;39.41895;95947.37;;;;
2022/03/25 01:42:16;;;;;;;9.199999;6.9;;;;;;;1.39;39.41895;95947.37;;;;
2022/03/25 01:43:17;;;;;;;9.199999;6.9;;;;;;;1.39;39.41895;95947.37;;;;
2022/03/25 01:44:17;;;;;;;9.199999;6.9;;;;;;;1.39;39.41895;95947.37;;;;
2022/03/25 01:45:24;;;;;;;9.199999;6.9;;;;;;;1.39;39.41895;95947.37;;;;
2022/03/25 01:46:32;;;;;;;9.199999;6.9;;;;;;;1.39;39.41895;95947.37;;;;
2022/03/25 01:47:32;;;;;;;9.199999;6.9;;;;;;;1.39;39.41895;95947.37;;;;
2022/03/25 01:48:33;;;;;;;10.5;6.749999;;;;;;;1.24;39.64941;95957;;;;
2022/03/25 01:49:34;;;;;;;10.5;6.749999;;;;;;;1.24;39.64941;95957;;;;
2022/03/25 01:50:35;;;;;;;10.5;6.749999;;;;;;;1.24;39.64941;95957;;;;
2022/03/25 01:51:36;;;;;;;10.5;6.749999;;;;;;;1.24;39.64941;95957;;;;
2022/03/25 01:52:39;;;;;;;10.5;6.749999;;;;;;;1.24;39.64941;95957;;;;
2022/03/25 01:53:40;;;;;;;10.5;6.749999;;;;;;;1.24;39.64941;95957;;;;
2022/03/25 01:54:41;;;;;;;10.5;6.749999;;;;;;;1.24;39.64941;95957;;;;
2022/03/25 01:55:41;;;;;;;10.5;6.749999;;;;;;;1.24;39.64941;95957;;;;
2022/03/25 01:56:49;;;;;;;10.5;6.749999;;;;;;;1.24;39.64941;95957;;;;
2022/03/25 01:57:54;;;;;;;10.5;6.749999;;;;;;;1.24;39.64941;95957;;;;
2022/03/25 01:58:57;;;;;;;12.35;7.000001;;;;;;;1.17;39.82129;95951.15;;;;
2022/03/25 01:59:57;;;;;;;12.35;7.000001;;;;;;;1.17;39.82129;95951.15;;;;
2022/03/25 02:00:58;;;;;;;12.35;7.000001;;;;;;;1.17;39.82129;95951.15;;;;
2022/03/25 02:02:01;;;;;;;12.35;7.000001;;;;;;;1.17;39.82129;95951.15;;;;
2022/03/25 02:03:05;;;;;;;12.35;7.000001;;;;;;;1.17;39.82129;95951.15;;;;
2022/03/25 02:04:06;;;;;;;12.35;7.000001;;;;;;;1.17;39.82129;95951.15;;;;
2022/03/25 02:05:06;;;;;;;12.35;7.000001;;;;;;;1.17;39.82129;95951.15;;;;
2022/03/25 02:06:08;;;;;;;12.35;7.000001;;;;;;;1.17;39.82129;95951.15;;;;
2022/03/25 02:07:09;;;;;;;12.35;7.000001;;;;;;;1.17;39.82129;95951.15;;;;
2022/03/25 02:08:09;;;;;;;12.35;7.000001;;;;;;;1.17;39.82129;95951.15;;;;
2022/03/25 02:09:10;;;;;;;11.1;6.95;;;;;;;1;40.02832;95937.39;;;;
2022/03/25 02:10:11;;;;;;;11.1;6.95;;;;;;;1;40.02832;95937.39;;;;
2022/03/25 02:11:12;;;;;;;11.1;6.95;;;;;;;1;40.02832;95937.39;;;;
2022/03/25 02:12:13;;;;;;;11.1;6.95;;;;;;;1;40.02832;95937.39;;;;
2022/03/25 02:13:14;;;;;;;11.1;6.95;;;;;;;1;40.02832;95937.39;;;;
2022/03/25 02:14:16;;;;;;;11.1;6.95;;;;;;;1;40.02832;95937.39;;;;
2022/03/25 02:15:17;;;;;;;11.1;6.95;;;;;;;1;40.02832;95937.39;;;;
2022/03/25 02:16:18;;;;;;;11.1;6.95;;;;;;;1;40.02832;95937.39;;;;
2022/03/25 02:17:18;;;;;;;11.1;6.95;;;;;;;1;40.02832;95937.39;;;;
2022/03/25 02:18:19;;;;;;;11.1;6.95;;;;;;;1;40.02832;95937.39;;;;
2022/03/25 02:19:19;;;;;;;11.1;6.95;;;;;;;1;40.02832;95937.39;;;;
2022/03/25 02:20:20;;;;;;;10.95;7.299999;;;;;;;0.96;40.28809;95935.21;;;;
2022/03/25 02:21:20;;;;;;;10.95;7.299999;;;;;;;0.96;40.28809;95935.21;;;;
2022/03/25 02:22:22;;;;;;;10.95;7.299999;;;;;;;0.96;40.28809;95935.21;;;;
2022/03/25 02:23:23;;;;;;;10.95;7.299999;;;;;;;0.96;40.28809;95935.21;;;;
2022/03/25 02:24:24;;;;;;;10.95;7.299999;;;;;;;0.96;40.28809;95935.21;;;;
2022/03/25 02:25:26;;;;;;;10.95;7.299999;;;;;;;0.96;40.28809;95935.21;;;;
2022/03/25 02:26:27;;;;;;;10.95;7.299999;;;;;;;0.96;40.28809;95935.21;;;;
2022/03/25 02:27:28;;;;;;;10.95;7.299999;;;;;;;0.96;40.28809;95935.21;;;;
2022/03/25 02:28:29;;;;;;;10.95;7.299999;;;;;;;0.96;40.28809;95935.21;;;;
2022/03/25 02:29:32;;;;;;;10.95;7.299999;;;;;;;0.96;40.28809;95935.21;;;;
2022/03/25 02:30:33;;;;;;;10.55;6.799999;;;;;;;0.89;40.40918;95947.41;;;;
2022/03/25 02:31:35;;;;;;;10.55;6.799999;;;;;;;0.89;40.40918;95947.41;;;;
2022/03/25 02:32:36;;;;;;;10.55;6.799999;;;;;;;0.89;40.40918;95947.41;;;;
2022/03/25 02:33:37;;;;;;;10.55;6.799999;;;;;;;0.89;40.40918;95947.41;;;;
2022/03/25 02:34:37;;;;;;;10.55;6.799999;;;;;;;0.89;40.40918;95947.41;;;;
2022/03/25 02:35:39;;;;;;;10.55;6.799999;;;;;;;0.89;40.40918;95947.41;;;;
2022/03/25 02:36:41;;;;;;;10.55;6.799999;;;;;;;0.89;40.40918;95947.41;;;;
2022/03/25 02:37:44;;;;;;;10.55;6.799999;;;;;;;0.89;40.40918;95947.41;;;;
2022/03/25 02:38:44;;;;;;;10.55;6.799999;;;;;;;0.89;40.40918;95947.41;;;;
2022/03/25 02:39:45;;;;;;;10.55;6.799999;;;;;;;0.89;40.40918;95947.41;;;;
2022/03/25 02:40:46;;;;;;;10.55;6.799999;;;;;;;0.89;40.40918;95947.41;;;;
2022/03/25 02:41:46;;;;;;;9.450001;6.200001;;;;;;;0.72;40.66699;95954.16;;;;
2022/03/25 02:42:47;;;;;;;9.450001;6.200001;;;;;;;0.72;40.66699;95954.16;;;;
2022/03/25 02:43:47;;;;;;;9.450001;6.200001;;;;;;;0.72;40.66699;95954.16;;;;
2022/03/25 02:44:48;;;;;;;9.450001;6.200001;;;;;;;0.72;40.66699;95954.16;;;;
2022/03/25 02:45:49;;;;;;;9.450001;6.200001;;;;;;;0.72;40.66699;95954.16;;;;
2022/03/25 02:46:50;;;;;;;9.450001;6.200001;;;;;;;0.72;40.66699;95954.16;;;;
2022/03/25 02:47:50;;;;;;;9.450001;6.200001;;;;;;;0.72;40.66699;95954.16;;;;
2022/03/25 02:48:51;;;;;;;9.450001;6.200001;;;;;;;0.72;40.66699;95954.16;;;;
2022/03/25 02:49:52;;;;;;;9.450001;6.200001;;;;;;;0.72;40.66699;95954.16;;;;
2022/03/25 02:50:53;;;;;;;9.450001;6.200001;;;;;;;0.72;40.66699;95954.16;;;;
2022/03/25 02:51:53;;;;;;;11.45;7.050002;;;;;;;0.61;40.98438;95950.87;;;;
2022/03/25 02:52:54;;;;;;;11.45;7.050002;;;;;;;0.61;40.98438;95950.87;;;;
2022/03/25 02:53:55;;;;;;;11.45;7.050002;;;;;;;0.61;40.98438;95950.87;;;;
2022/03/25 02:54:56;;;;;;;11.45;7.050002;;;;;;;0.61;40.98438;95950.87;;;;
2022/03/25 02:55:56;;;;;;;11.45;7.050002;;;;;;;0.61;40.98438;95950.87;;;;
2022/03/25 02:56:57;;;;;;;11.45;7.050002;;;;;;;0.61;40.98438;95950.87;;;;
2022/03/25 02:57:58;;;;;;;11.45;7.050002;;;;;;;0.61;40.98438;95950.87;;;;
2022/03/25 02:58:59;;;;;;;11.45;7.050002;;;;;;;0.61;40.98438;95950.87;;;;
2022/03/25 03:00:00;;;;;;;11.45;7.050002;;;;;;;0.61;40.98438;95950.87;;;;
2022/03/25 03:01:01;;;;;;;11.45;7.050002;;;;;;;0.61;40.98438;95950.87;;;;
2022/03/25 03:02:01;;;;;;;11.45;7.050002;;;;;;;0.61;40.98438;95950.87;;;;
2022/03/25 03:03:03;;;;;;;10.95;7.4;;;;;;;0.57;41.10645;95949.94;;;;
2022/03/25 03:04:03;;;;;;;10.95;7.4;;;;;;;0.57;41.10645;95949.94;;;;
2022/03/25 03:05:04;;;;;;;10.95;7.4;;;;;;;0.57;41.10645;95949.94;;;;
2022/03/25 03:06:07;;;;;;;10.95;7.4;;;;;;;0.57;41.10645;95949.94;;;;
2022/03/25 03:07:08;;;;;;;10.95;7.4;;;;;;;0.57;41.10645;95949.94;;;;
2022/03/25 03:08:09;;;;;;;10.95;7.4;;;;;;;0.57;41.10645;95949.94;;;;
2022/03/25 03:09:09;;;;;;;10.95;7.4;;;;;;;0.57;41.10645;95949.94;;;;
2022/03/25 03:10:10;;;;;;;10.95;7.4;;;;;;;0.57;41.10645;95949.94;;;;
2022/03/25 03:11:13;;;;;;;10.95;7.4;;;;;;;0.57;41.10645;95949.94;;;;
2022/03/25 03:12:14;;;;;;;10.95;7.4;;;;;;;0.57;41.10645;95949.94;;;;
2022/03/25 03:13:15;;;;;;;14.05;7.75;;;;;;;0.48;41.31934;95949.55;;;;
2022/03/25 03:14:15;;;;;;;14.05;7.75;;;;;;;0.48;41.31934;95949.55;;;;
2022/03/25 03:15:17;;;;;;;14.05;7.75;;;;;;;0.48;41.31934;95949.55;;;;
2022/03/25 03:16:19;;;;;;;14.05;7.75;;;;;;;0.48;41.31934;95949.55;;;;
2022/03/25 03:17:20;;;;;;;14.05;7.75;;;;;;;0.48;41.31934;95949.55;;;;
2022/03/25 03:18:20;;;;;;;14.05;7.75;;;;;;;0.48;41.31934;95949.55;;;;
2022/03/25 03:19:21;;;;;;;14.05;7.75;;;;;;;0.48;41.31934;95949.55;;;;
2022/03/25 03:20:21;;;;;;;14.05;7.75;;;;;;;0.48;41.31934;95949.55;;;;
2022/03/25 03:21:24;;;;;;;14.05;7.75;;;;;;;0.48;41.31934;95949.55;;;;
2022/03/25 03:22:24;;;;;;;14.05;7.75;;;;;;;0.48;41.31934;95949.55;;;;
2022/03/25 03:23:25;;;;;;;14.05;7.75;;;;;;;0.48;41.31934;95949.55;;;;
2022/03/25 03:24:26;;;;;;;11.75;7.15;;;;;;;0.49;41.48926;95952.11;;;;
2022/03/25 03:25:26;;;;;;;11.75;7.15;;;;;;;0.49;41.48926;95952.11;;;;
2022/03/25 03:26:27;;;;;;;11.75;7.15;;;;;;;0.49;41.48926;95952.11;;;;
2022/03/25 03:27:27;;;;;;;11.75;7.15;;;;;;;0.49;41.48926;95952.11;;;;
2022/03/25 03:28:28;;;;;;;11.75;7.15;;;;;;;0.49;41.48926;95952.11;;;;
2022/03/25 03:29:29;;;;;;;11.75;7.15;;;;;;;0.49;41.48926;95952.11;;;;
2022/03/25 03:30:29;;;;;;;11.75;7.15;;;;;;;0.49;41.48926;95952.11;;;;
2022/03/25 03:31:30;;;;;;;11.75;7.15;;;;;;;0.49;41.48926;95952.11;;;;
2022/03/25 03:32:31;;;;;;;11.75;7.15;;;;;;;0.49;41.48926;95952.11;;;;
2022/03/25 03:33:31;;;;;;;11.75;7.15;;;;;;;0.49;41.48926;95952.11;;;;
2022/03/25 03:34:32;;;;;;;10.35;7.099999;;;;;;;0.51;41.62891;95947.05;;;;
2022/03/25 03:35:34;;;;;;;10.35;7.099999;;;;;;;0.51;41.62891;95947.05;;;;
2022/03/25 03:36:35;;;;;;;10.35;7.099999;;;;;;;0.51;41.62891;95947.05;;;;
2022/03/25 03:37:36;;;;;;;10.35;7.099999;;;;;;;0.51;41.62891;95947.05;;;;
2022/03/25 03:38:40;;;;;;;10.35;7.099999;;;;;;;0.51;41.62891;95947.05;;;;
2022/03/25 03:39:40;;;;;;;10.35;7.099999;;;;;;;0.51;41.62891;95947.05;;;;
2022/03/25 03:40:41;;;;;;;10.35;7.099999;;;;;;;0.51;41.62891;95947.05;;;;
2022/03/25 03:41:41;;;;;;;10.35;7.099999;;;;;;;0.51;41.62891;95947.05;;;;
2022/03/25 03:42:42;;;;;;;10.35;7.099999;;;;;;;0.51;41.62891;95947.05;;;;
2022/03/25 03:43:43;;;;;;;10.35;7.099999;;;;;;;0.51;41.62891;95947.05;;;;
2022/03/25 03:44:44;;;;;;;10.35;7.099999;;;;;;;0.51;41.62891;95947.05;;;;
2022/03/25 03:45:44;;;;;;;12.7;7.5;;;;;;;0.52;41.78809;95944.65;;;;
2022/03/25 03:46:45;;;;;;;12.7;7.5;;;;;;;0.52;41.78809;95944.65;;;;
2022/03/25 03:47:45;;;;;;;12.7;7.5;;;;;;;0.52;41.78809;95944.65;;;;
2022/03/25 03:48:47;;;;;;;12.7;7.5;;;;;;;0.52;41.78809;95944.65;;;;
2022/03/25 03:49:47;;;;;;;12.7;7.5;;;;;;;0.52;41.78809;95944.65;;;;
2022/03/25 03:50:49;;;;;;;12.7;7.5;;;;;;;0.52;41.78809;95944.65;;;;
2022/03/25 03:51:49;;;;;;;12.7;7.5;;;;;;;0.52;41.78809;95944.65;;;;
2022/03/25 03:52:50;;;;;;;12.7;7.5;;;;;;;0.52;41.78809;95944.65;;;;
2022/03/25 03:53:50;;;;;;;12.7;7.5;;;;;;;0.52;41.78809;95944.65;;;;
2022/03/25 03:54:51;;;;;;;12.7;7.5;;;;;;;0.52;41.78809;95944.65;;;;
2022/03/25 03:55:51;;;;;;;10.2;6.95;;;;;;;0.53;41.97852;95946.83;;;;
2022/03/25 03:56:52;;;;;;;10.2;6.95;;;;;;;0.53;41.97852;95946.83;;;;
2022/03/25 03:57:52;;;;;;;10.2;6.95;;;;;;;0.53;41.97852;95946.83;;;;
2022/03/25 03:58:53;;;;;;;10.2;6.95;;;;;;;0.53;41.97852;95946.83;;;;
2022/03/25 03:59:54;;;;;;;10.2;6.95;;;;;;;0.53;41.97852;95946.83;;;;
2022/03/25 04:00:55;;;;;;;10.2;6.95;;;;;;;0.53;41.97852;95946.83;;;;
2022/03/25 04:01:55;;;;;;;10.2;6.95;;;;;;;0.53;41.97852;95946.83;;;;
2022/03/25 04:02:57;;;;;;;10.2;6.95;;;;;;;0.53;41.97852;95946.83;;;;
2022/03/25 04:03:57;;;;;;;10.2;6.95;;;;;;;0.53;41.97852;95946.83;;;;
2022/03/25 04:04:57;;;;;;;10.2;6.95;;;;;;;0.53;41.97852;95946.83;;;;
2022/03/25 04:05:58;;;;;;;10.2;6.95;;;;;;;0.53;41.97852;95946.83;;;;
2022/03/25 04:06:59;;;;;;;10.75;7.25;;;;;;;0.45;42.21387;95941.88;;;;
2022/03/25 04:08:00;;;;;;;10.75;7.25;;;;;;;0.45;42.21387;95941.88;;;;
2022/03/25 04:09:00;;;;;;;10.75;7.25;;;;;;;0.45;42.21387;95941.88;;;;
2022/03/25 04:10:01;;;;;;;10.75;7.25;;;;;;;0.45;42.21387;95941.88;;;;
2022/03/25 04:11:02;;;;;;;10.75;7.25;;;;;;;0.45;42.21387;95941.88;;;;
2022/03/25 04:12:03;;;;;;;10.75;7.25;;;;;;;0.45;42.21387;95941.88;;;;
2022/03/25 04:13:04;;;;;;;10.75;7.25;;;;;;;0.45;42.21387;95941.88;;;;
2022/03/25 04:14:05;;;;;;;10.75;7.25;;;;;;;0.45;42.21387;95941.88;;;;
2022/03/25 04:15:09;;;;;;;10.75;7.25;;;;;;;0.45;42.21387;95941.88;;;;
2022/03/25 04:16:11;;;;;;;10.75;7.25;;;;;;;0.45;42.21387;95941.88;;;;
2022/03/25 04:17:11;;;;;;;11.2;6.7;;;;;;;0.39;42.4707;95940.78;;;;
2022/03/25 04:18:12;;;;;;;11.2;6.7;;;;;;;0.39;42.4707;95940.78;;;;
2022/03/25 04:19:12;;;;;;;11.2;6.7;;;;;;;0.39;42.4707;95940.78;;;;
2022/03/25 04:20:14;;;;;;;11.2;6.7;;;;;;;0.39;42.4707;95940.78;;;;
2022/03/25 04:21:15;;;;;;;11.2;6.7;;;;;;;0.39;42.4707;95940.78;;;;
2022/03/25 04:22:16;;;;;;;11.2;6.7;;;;;;;0.39;42.4707;95940.78;;;;
2022/03/25 04:23:16;;;;;;;11.2;6.7;;;;;;;0.39;42.4707;95940.78;;;;
2022/03/25 04:24:17;;;;;;;11.2;6.7;;;;;;;0.39;42.4707;95940.78;;;;
2022/03/25 04:25:18;;;;;;;11.2;6.7;;;;;;;0.39;42.4707;95940.78;;;;
2022/03/25 04:26:19;;;;;;;11.2;6.7;;;;;;;0.39;42.4707;95940.78;;;;
2022/03/25 04:27:19;;;;;;;11.2;6.7;;;;;;;0.39;42.4707;95940.78;;;;
2022/03/25 04:28:20;;;;;;;12.9;7.2;;;;;;;0.35;42.71973;95941.66;;;;
2022/03/25 04:29:22;;;;;;;12.9;7.2;;;;;;;0.35;42.71973;95941.66;;;;
2022/03/25 04:30:22;;;;;;;12.9;7.2;;;;;;;0.35;42.71973;95941.66;;;;
2022/03/25 04:31:25;;;;;;;12.9;7.2;;;;;;;0.35;42.71973;95941.66;;;;
2022/03/25 04:32:26;;;;;;;12.9;7.2;;;;;;;0.35;42.71973;95941.66;;;;
2022/03/25 04:33:26;;;;;;;12.9;7.2;;;;;;;0.35;42.71973;95941.66;;;;
2022/03/25 04:34:27;;;;;;;12.9;7.2;;;;;;;0.35;42.71973;95941.66;;;;
2022/03/25 04:35:28;;;;;;;12.9;7.2;;;;;;;0.35;42.71973;95941.66;;;;
2022/03/25 04:36:29;;;;;;;12.9;7.2;;;;;;;0.35;42.71973;95941.66;;;;
2022/03/25 04:37:30;;;;;;;12.9;7.2;;;;;;;0.35;42.71973;95941.66;;;;
2022/03/25 04:38:30;;;;;;;11.65;7.050001;;;;;;;0.34;42.94043;95945.22;;;;
2022/03/25 04:39:31;;;;;;;11.65;7.050001;;;;;;;0.34;42.94043;95945.22;;;;
2022/03/25 04:40:31;;;;;;;11.65;7.050001;;;;;;;0.34;42.94043;95945.22;;;;
2022/03/25 04:41:32;;;;;;;11.65;7.050001;;;;;;;0.34;42.94043;95945.22;;;;
2022/03/25 04:42:33;;;;;;;11.65;7.050001;;;;;;;0.34;42.94043;95945.22;;;;
2022/03/25 04:43:33;;;;;;;11.65;7.050001;;;;;;;0.34;42.94043;95945.22;;;;
2022/03/25 04:44:34;;;;;;;11.65;7.050001;;;;;;;0.34;42.94043;95945.22;;;;
2022/03/25 04:45:34;;;;;;;11.65;7.050001;;;;;;;0.34;42.94043;95945.22;;;;
2022/03/25 04:46:36;;;;;;;11.65;7.050001;;;;;;;0.34;42.94043;95945.22;;;;
2022/03/25 04:47:36;;;;;;;11.65;7.050001;;;;;;;0.34;42.94043;95945.22;;;;
2022/03/25 04:48:37;;;;;;;11.65;7.050001;;;;;;;0.34;42.94043;95945.22;;;;
2022/03/25 04:49:38;;;;;;;11.5;7.050001;;;;;;;0.36;43.11133;95946;;;;
2022/03/25 04:50:38;;;;;;;11.5;7.050001;;;;;;;0.36;43.11133;95946;;;;
2022/03/25 04:51:39;;;;;;;11.5;7.050001;;;;;;;0.36;43.11133;95946;;;;
2022/03/25 04:52:39;;;;;;;11.5;7.050001;;;;;;;0.36;43.11133;95946;;;;
2022/03/25 04:53:40;;;;;;;11.5;7.050001;;;;;;;0.36;43.11133;95946;;;;
2022/03/25 04:54:40;;;;;;;11.5;7.050001;;;;;;;0.36;43.11133;95946;;;;
2022/03/25 04:55:41;;;;;;;11.5;7.050001;;;;;;;0.36;43.11133;95946;;;;
2022/03/25 04:56:41;;;;;;;11.5;7.050001;;;;;;;0.36;43.11133;95946;;;;
2022/03/25 04:57:42;;;;;;;11.5;7.050001;;;;;;;0.36;43.11133;95946;;;;
2022/03/25 04:58:43;;;;;;;11.5;7.050001;;;;;;;0.36;43.11133;95946;;;;
2022/03/25 04:59:43;;;;;;;9.85;6.299999;;;;;;;0.36;43.30078;95944.67;;;;
2022/03/25 05:00:44;;;;;;;9.85;6.299999;;;;;;;0.36;43.30078;95944.67;;;;
2022/03/25 05:01:45;;;;;;;9.85;6.299999;;;;;;;0.36;43.30078;95944.67;;;;
2022/03/25 05:02:45;;;;;;;9.85;6.299999;;;;;;;0.36;43.30078;95944.67;;;;
2022/03/25 05:03:46;;;;;;;9.85;6.299999;;;;;;;0.36;43.30078;95944.67;;;;
2022/03/25 05:04:47;;;;;;;9.85;6.299999;;;;;;;0.36;43.30078;95944.67;;;;
2022/03/25 05:05:47;;;;;;;9.85;6.299999;;;;;;;0.36;43.30078;95944.67;;;;
2022/03/25 05:06:48;;;;;;;9.85;6.299999;;;;;;;0.36;43.30078;95944.67;;;;
2022/03/25 05:07:50;;;;;;;9.85;6.299999;;;;;;;0.36;43.30078;95944.67;;;;
2022/03/25 05:08:51;;;;;;;9.85;6.299999;;;;;;;0.36;43.30078;95944.67;;;;
2022/03/25 05:09:51;;;;;;;9.85;6.299999;;;;;;;0.36;43.30078;95944.67;;;;
2022/03/25 05:10:52;;;;;;;10.5;6.6;;;;;;;0.35;43.4375;95949.14;;;;
2022/03/25 05:11:53;;;;;;;10.5;6.6;;;;;;;0.35;43.4375;95949.14;;;;
2022/03/25 05:12:54;;;;;;;10.5;6.6;;;;;;;0.35;43.4375;95949.14;;;;
2022/03/25 05:13:54;;;;;;;10.5;6.6;;;;;;;0.35;43.4375;95949.14;;;;
2022/03/25 05:14:55;;;;;;;10.5;6.6;;;;;;;0.35;43.4375;95949.14;;;;
2022/03/25 05:15:56;;;;;;;10.5;6.6;;;;;;;0.35;43.4375;95949.14;;;;
2022/03/25 05:16:56;;;;;;;10.5;6.6;;;;;;;0.35;43.4375;95949.14;;;;
2022/03/25 05:17:57;;;;;;;10.5;6.6;;;;;;;0.35;43.4375;95949.14;;;;
2022/03/25 05:18:57;;;;;;;10.5;6.6;;;;;;;0.35;43.4375;95949.14;;;;
2022/03/25 05:19:58;;;;;;;10.5;6.6;;;;;;;0.35;43.4375;95949.14;;;;
2022/03/25 05:21:00;;;;;;;10.5;6.6;;;;;;;0.35;43.4375;95949.14;;;;
2022/03/25 05:22:00;;;;;;;11.6;6.9;;;;;;;0.39;43.58887;95943.02;;;;
2022/03/25 05:23:01;;;;;;;11.6;6.9;;;;;;;0.39;43.58887;95943.02;;;;
2022/03/25 05:24:01;;;;;;;11.6;6.9;;;;;;;0.39;43.58887;95943.02;;;;
2022/03/25 05:25:06;;;;;;;11.6;6.9;;;;;;;0.39;43.58887;95943.02;;;;
2022/03/25 05:26:08;;;;;;;11.6;6.9;;;;;;;0.39;43.58887;95943.02;;;;
2022/03/25 05:27:08;;;;;;;11.6;6.9;;;;;;;0.39;43.58887;95943.02;;;;
2022/03/25 05:28:09;;;;;;;11.6;6.9;;;;;;;0.39;43.58887;95943.02;;;;
2022/03/25 05:29:09;;;;;;;11.6;6.9;;;;;;;0.39;43.58887;95943.02;;;;
2022/03/25 05:30:11;;;;;;;11.6;6.9;;;;;;;0.39;43.58887;95943.02;;;;
2022/03/25 05:31:11;;;;;;;11.6;6.9;;;;;;;0.39;43.58887;95943.02;;;;
2022/03/25 05:32:13;;;;;;;9.150001;6.35;;;;;;;0.47;43.6709;95953.6;;;;
2022/03/25 05:33:14;;;;;;;9.150001;6.35;;;;;;;0.47;43.6709;95953.6;;;;
2022/03/25 05:34:14;;;;;;;9.150001;6.35;;;;;;;0.47;43.6709;95953.6;;;;
2022/03/25 05:35:15;;;;;;;9.150001;6.35;;;;;;;0.47;43.6709;95953.6;;;;
2022/03/25 05:36:16;;;;;;;9.150001;6.35;;;;;;;0.47;43.6709;95953.6;;;;
2022/03/25 05:37:17;;;;;;;9.150001;6.35;;;;;;;0.47;43.6709;95953.6;;;;
2022/03/25 05:38:17;;;;;;;9.150001;6.35;;;;;;;0.47;43.6709;95953.6;;;;
2022/03/25 05:39:18;;;;;;;9.150001;6.35;;;;;;;0.47;43.6709;95953.6;;;;